createdAt,value
2023-05-10T00:01:51.115Z,97003.38
2023-05-10T00:04:18.289Z,96996.34
2023-05-10T00:06:45.410Z,96990.97
2023-05-10T00:09:12.496Z,96992.56
2023-05-10T00:11:40.940Z,96992.38
2023-05-10T00:14:08.081Z,96988.19
2023-05-10T00:16:35.200Z,96988.97
2023-05-10T00:19:02.294Z,96996.28
2023-05-10T00:21:29.538Z,96991.19
2023-05-10T00:23:56.609Z,96983.59
2023-05-10T00:26:23.681Z,96987.69
2023-05-10T00:28:52.209Z,96975.28
2023-05-10T00:31:19.486Z,96980.25
2023-05-10T00:33:46.589Z,96982.06
2023-05-10T00:36:13.698Z,96987.16
2023-05-10T00:38:40.771Z,96981.44
2023-05-10T00:41:07.863Z,96978.75
2023-05-10T00:43:34.960Z,96984.47
2023-05-10T00:46:03.889Z,96983.84
2023-05-10T00:48:31.076Z,96987.66
2023-05-10T00:50:58.379Z,96983.34
2023-05-10T00:53:25.727Z,96980.16
2023-05-10T00:55:52.928Z,96984.47
2023-05-10T00:58:20.131Z,96980.66
2023-05-10T01:00:47.563Z,96978.97
2023-05-10T01:03:22.343Z,96978.47
2023-05-10T01:05:49.528Z,96977.41
2023-05-10T01:08:16.845Z,96968.41
2023-05-10T01:10:44.718Z,96978.47
2023-05-10T01:13:13.118Z,96985.06
2023-05-10T01:15:40.823Z,96962.09
2023-05-10T01:18:09.731Z,96981.94
2023-05-10T01:20:44.044Z,96983.34
2023-05-10T01:23:36.797Z,96983.06
2023-05-10T01:26:36.068Z,96985.75
2023-05-10T01:29:36.607Z,96989.25
2023-05-10T01:32:15.837Z,96987.97
2023-05-10T01:34:54.327Z,96982.88
2023-05-10T01:37:26.564Z,96990.66
2023-05-10T01:39:58.990Z,96993.38
2023-05-10T01:42:29.789Z,96991.44
2023-05-10T01:45:08.380Z,96994.78
2023-05-10T01:47:41.396Z,96987.56
2023-05-10T01:50:16.217Z,96992.78
2023-05-10T01:52:48.450Z,96994.09
2023-05-10T01:55:17.131Z,96996.47
2023-05-10T01:57:47.283Z,96990.56
2023-05-10T02:00:16.688Z,96990.56
2023-05-10T02:02:48.338Z,96989.97
2023-05-10T02:05:17.130Z,96988.75
2023-05-10T02:07:45.717Z,96988.75
2023-05-10T02:10:14.537Z,96978.16
2023-05-10T02:12:44.192Z,96983.84
2023-05-10T02:15:13.593Z,96989.25
2023-05-10T02:17:43.105Z,96983.06
2023-05-10T02:20:13.788Z,96990.84
2023-05-10T02:22:42.573Z,96985.75
2023-05-10T02:25:12.358Z,96992.25
2023-05-10T02:27:41.575Z,96990.38
2023-05-10T02:30:10.033Z,96990.16
2023-05-10T02:32:38.746Z,96991.25
2023-05-10T02:35:07.071Z,96989.28
2023-05-10T02:37:37.610Z,96998.66
2023-05-10T02:40:06.388Z,96957.00
2023-05-10T02:42:36.903Z,96989.69
2023-05-10T02:45:09.365Z,96987.56
2023-05-10T02:47:36.653Z,96989.97
2023-05-10T02:50:04.329Z,96984.16
2023-05-10T02:52:40.319Z,96987.03
2023-05-10T02:55:12.275Z,96980.16
2023-05-10T02:57:42.878Z,96991.94
2023-05-10T03:00:10.787Z,96988.75
2023-05-10T03:02:37.970Z,96985.75
2023-05-10T03:05:05.741Z,96989.25
2023-05-10T03:07:33.964Z,96990.38
2023-05-10T03:10:03.540Z,96981.16
2023-05-10T03:12:47.969Z,96991.16
2023-05-10T03:15:23.160Z,96987.34
2023-05-10T03:17:56.416Z,96986.84
2023-05-10T03:20:26.553Z,96981.09
2023-05-10T03:23:00.536Z,96984.38
2023-05-10T03:25:30.588Z,96980.09
2023-05-10T03:27:58.171Z,96982.16
2023-05-10T03:30:25.907Z,96987.38
2023-05-10T03:32:53.162Z,96987.56
2023-05-10T03:35:20.407Z,96986.34
2023-05-10T03:37:47.515Z,96982.66
2023-05-10T03:40:14.849Z,96993.06
2023-05-10T03:42:43.361Z,96994.66
2023-05-10T03:45:11.045Z,96998.97
2023-05-10T03:47:38.187Z,96994.06
2023-05-10T03:50:06.643Z,96995.13
2023-05-10T03:52:33.797Z,97001.97
2023-05-10T03:55:01.063Z,97000.06
2023-05-10T03:57:28.266Z,97002.75
2023-05-10T03:59:56.734Z,97003.03
2023-05-10T04:02:23.905Z,97010.06
2023-05-10T04:04:51.020Z,97005.75
2023-05-10T04:07:18.202Z,97002.69
2023-05-10T04:09:45.282Z,97012.34
2023-05-10T04:12:12.346Z,97014.56
2023-05-10T04:14:39.509Z,97018.56
2023-05-10T04:17:08.045Z,97018.69
2023-05-10T04:19:36.365Z,97014.25
2023-05-10T04:22:04.010Z,97018.44
2023-05-10T04:24:31.085Z,97021.66
2023-05-10T04:26:58.170Z,96991.91
2023-05-10T04:29:25.285Z,97016.38
2023-05-10T04:31:52.373Z,97016.75
2023-05-10T04:34:21.416Z,97023.13
2023-05-10T04:36:48.510Z,97026.69
2023-05-10T04:39:15.569Z,97026.41
2023-05-10T04:41:42.646Z,97029.13
2023-05-10T04:44:09.752Z,97024.00
2023-05-10T04:46:36.862Z,97018.94
2023-05-10T04:49:04.005Z,97023.13
2023-05-10T04:51:32.560Z,97008.88
2023-05-10T04:54:05.907Z,97032.34
2023-05-10T04:56:33.480Z,97032.06
2023-05-10T04:59:00.712Z,97027.63
2023-05-10T05:01:27.909Z,97033.75
2023-05-10T05:03:55.218Z,97039.03
2023-05-10T05:06:22.482Z,97039.53
2023-05-10T05:08:50.892Z,97045.31
2023-05-10T05:11:18.432Z,97046.53
2023-05-10T05:13:45.675Z,97042.03
2023-05-10T05:16:12.862Z,97045.91
2023-05-10T05:18:40.064Z,97050.63
2023-05-10T05:21:15.164Z,97054.00
2023-05-10T05:23:42.257Z,97051.63
2023-05-10T05:26:10.801Z,97045.91
2023-05-10T05:28:37.980Z,97058.53
2023-05-10T05:31:05.114Z,97065.03
2023-05-10T05:33:32.233Z,97064.31
2023-05-10T05:36:01.964Z,97079.44
2023-05-10T05:38:29.054Z,97078.66
2023-05-10T05:40:56.174Z,97075.44
2023-05-10T05:43:24.688Z,97077.31
2023-05-10T05:45:53.313Z,97090.53
2023-05-10T05:48:20.614Z,97092.03
2023-05-10T05:50:47.706Z,97086.81
2023-05-10T05:53:14.793Z,97096.53
2023-05-10T05:55:41.894Z,97091.63
2023-05-10T05:58:08.978Z,97093.00
2023-05-10T06:00:37.473Z,97093.00
2023-05-10T06:03:04.626Z,97097.31
2023-05-10T06:05:31.784Z,97091.72
2023-05-10T06:08:00.871Z,97100.63
2023-05-10T06:10:27.976Z,97105.03
2023-05-10T06:12:55.099Z,97110.94
2023-05-10T06:15:22.409Z,97109.94
2023-05-10T06:17:50.895Z,97110.34
2023-05-10T06:20:18.239Z,97102.63
2023-05-10T06:22:45.400Z,97111.94
2023-05-10T06:25:12.700Z,97121.16
2023-05-10T06:27:39.771Z,97113.84
2023-05-10T06:30:13.030Z,97124.06
2023-05-10T06:32:40.816Z,97114.84
2023-05-10T06:35:10.163Z,97120.94
2023-05-10T06:37:37.251Z,97129.75
2023-05-10T06:40:05.458Z,97138.13
2023-05-10T06:42:32.571Z,97132.22
2023-05-10T06:44:59.649Z,97131.75
2023-05-10T06:47:26.773Z,97129.53
2023-05-10T06:49:53.904Z,97135.44
2023-05-10T06:52:22.331Z,97140.84
2023-05-10T06:54:49.392Z,97139.03
2023-05-10T06:57:27.541Z,97136.91
2023-05-10T06:59:59.685Z,97144.31
2023-05-10T07:02:26.900Z,97143.94
2023-05-10T07:04:54.261Z,97142.94
2023-05-10T07:07:22.787Z,97151.94
2023-05-10T07:09:50.054Z,97151.44
2023-05-10T07:12:17.230Z,97146.53
2023-05-10T07:14:44.347Z,97159.16
2023-05-10T07:17:11.530Z,97157.75
2023-05-10T07:19:38.621Z,97158.53
2023-05-10T07:22:05.730Z,97166.34
2023-05-10T07:24:34.892Z,97168.53
2023-05-10T07:27:02.053Z,97167.44
2023-05-10T07:29:29.186Z,97167.75
2023-05-10T07:31:58.730Z,97169.13
2023-05-10T07:34:26.244Z,97173.44
2023-05-10T07:36:53.573Z,97170.75
2023-05-10T07:39:26.607Z,97169.44
2023-05-10T07:41:56.026Z,97174.03
2023-05-10T07:44:23.173Z,97176.53
2023-05-10T07:46:50.763Z,97173.16
2023-05-10T07:49:17.975Z,97176.66
2023-05-10T07:51:45.116Z,97182.56
2023-05-10T07:54:12.220Z,97156.13
2023-05-10T07:56:39.359Z,97187.16
2023-05-10T07:59:09.380Z,97186.66
2023-05-10T08:01:37.811Z,97189.94
2023-05-10T08:04:05.012Z,97187.44
2023-05-10T08:06:32.198Z,97189.56
2023-05-10T08:08:59.279Z,97190.22
2023-05-10T08:11:26.417Z,97196.25
2023-05-10T08:13:53.512Z,97194.63
2023-05-10T08:16:22.006Z,97191.16
2023-05-10T08:18:49.158Z,97188.25
2023-05-10T08:21:16.546Z,97191.16
2023-05-10T08:23:43.824Z,97198.94
2023-05-10T08:26:10.903Z,97184.25
2023-05-10T08:28:38.257Z,97197.66
2023-05-10T08:31:05.716Z,97200.94
2023-05-10T08:33:34.198Z,97205.84
2023-05-10T08:36:01.333Z,97205.56
2023-05-10T08:38:28.438Z,97198.47
2023-05-10T08:40:56.478Z,97202.38
2023-05-10T08:43:27.872Z,97200.94
2023-05-10T08:45:55.934Z,97193.66
2023-05-10T08:48:24.935Z,97214.88
2023-05-10T08:50:54.875Z,97203.06
2023-05-10T08:53:24.045Z,97206.06
2023-05-10T08:55:51.436Z,97215.28
2023-05-10T08:58:18.681Z,97214.09
2023-05-10T09:00:46.472Z,97210.16
2023-05-10T09:03:13.897Z,97212.53
2023-05-10T09:05:41.031Z,97214.25
2023-05-10T09:08:09.765Z,97209.84
2023-05-10T09:10:37.892Z,97216.06
2023-05-10T09:13:05.480Z,97209.84
2023-05-10T09:15:32.549Z,97213.66
2023-05-10T09:17:59.775Z,97219.56
2023-05-10T09:20:26.900Z,97212.25
2023-05-10T09:22:54.079Z,97222.34
2023-05-10T09:25:22.507Z,97216.47
2023-05-10T09:27:49.842Z,97235.78
2023-05-10T09:30:18.192Z,97229.56
2023-05-10T09:32:46.789Z,97232.28
2023-05-10T09:35:15.808Z,97229.56
2023-05-10T09:37:45.354Z,97225.25
2023-05-10T09:40:14.077Z,97220.78
2023-05-10T09:42:53.913Z,97222.56
2023-05-10T09:45:21.970Z,97226.19
2023-05-10T09:47:49.098Z,97223.78
2023-05-10T09:50:16.325Z,97232.19
2023-05-10T09:52:50.704Z,97233.06
2023-05-10T09:55:19.482Z,97229.31
2023-05-10T09:57:49.034Z,97228.66
2023-05-10T10:00:20.183Z,97218.59
2023-05-10T10:02:49.295Z,97218.91
2023-05-10T10:05:16.765Z,97225.13
2023-05-10T10:07:44.115Z,97221.06
2023-05-10T10:10:11.334Z,97220.25
2023-05-10T10:12:38.892Z,97219.09
2023-05-10T10:15:08.994Z,97215.59
2023-05-10T10:17:37.592Z,97226.72
2023-05-10T10:20:05.464Z,97224.34
2023-05-10T10:22:32.621Z,97219.66
2023-05-10T10:25:00.234Z,97221.06
2023-05-10T10:27:36.493Z,97215.91
2023-05-10T10:30:16.041Z,97223.41
2023-05-10T10:33:05.610Z,97220.44
2023-05-10T10:35:37.959Z,97224.44
2023-05-10T10:38:05.158Z,97211.84
2023-05-10T10:40:35.066Z,97212.09
2023-05-10T10:43:23.712Z,97211.47
2023-05-10T10:46:16.670Z,97203.47
2023-05-10T10:48:49.181Z,97196.34
2023-05-10T10:51:16.287Z,97202.44
2023-05-10T10:53:44.376Z,97195.44
2023-05-10T10:56:13.654Z,97185.88
2023-05-10T10:58:41.013Z,97190.69
2023-05-10T11:01:17.416Z,97184.50
2023-05-10T11:04:18.612Z,97175.13
2023-05-10T11:06:45.813Z,97196.53
2023-05-10T11:09:13.423Z,97192.22
2023-05-10T11:11:50.325Z,97194.06
2023-05-10T11:14:21.209Z,97185.03
2023-05-10T11:16:49.759Z,97190.59
2023-05-10T11:19:18.121Z,97191.66
2023-05-10T11:21:47.193Z,97182.69
2023-05-10T11:24:16.274Z,97190.38
2023-05-10T11:26:43.408Z,97191.66
2023-05-10T11:29:10.611Z,97187.69
2023-05-10T11:31:43.707Z,97177.06
2023-05-10T11:34:12.277Z,97163.06
2023-05-10T11:36:39.356Z,97172.19
2023-05-10T11:39:06.737Z,97165.81
2023-05-10T11:41:33.955Z,97177.06
2023-05-10T11:44:01.189Z,97186.84
2023-05-10T11:46:28.974Z,97180.13
2023-05-10T11:48:59.386Z,97186.66
2023-05-10T11:51:28.060Z,97173.53
2023-05-10T11:53:57.132Z,97187.06
2023-05-10T11:56:24.678Z,97187.63
2023-05-10T11:58:54.199Z,97175.16
2023-05-10T12:01:21.621Z,97180.38
2023-05-10T12:03:49.674Z,97185.78
2023-05-10T12:06:17.023Z,97191.19
2023-05-10T12:08:47.331Z,97189.59
2023-05-10T12:11:15.059Z,97190.38
2023-05-10T12:13:43.441Z,97196.09
2023-05-10T12:16:14.762Z,97181.00
2023-05-10T12:18:42.128Z,97194.47
2023-05-10T12:21:11.327Z,97200.06
2023-05-10T12:23:38.565Z,97192.06
2023-05-10T12:26:07.257Z,97193.84
2023-05-10T12:28:34.521Z,97190.34
2023-05-10T12:31:02.783Z,97190.03
2023-05-10T12:33:37.030Z,97175.25
2023-05-10T12:36:04.393Z,97191.28
2023-05-10T12:38:34.150Z,97197.66
2023-05-10T12:41:02.335Z,97191.47
2023-05-10T12:43:31.251Z,97196.78
2023-05-10T12:45:58.560Z,97194.88
2023-05-10T12:48:25.762Z,97202.09
2023-05-10T12:50:52.866Z,97200.78
2023-05-10T12:53:19.956Z,97200.72
2023-05-10T12:55:47.026Z,97203.72
2023-05-10T12:58:31.458Z,97216.78
2023-05-10T13:01:03.876Z,97206.66
2023-05-10T13:03:31.212Z,97233.84
2023-05-10T13:05:58.439Z,97230.66
2023-05-10T13:08:25.496Z,97240.16
2023-05-10T13:10:52.859Z,97228.84
2023-05-10T13:13:19.929Z,97229.53
2023-05-10T13:15:47.004Z,97224.91
2023-05-10T13:18:15.526Z,97223.03
2023-05-10T13:20:42.662Z,97229.22
2023-05-10T13:23:09.733Z,97228.94
2023-05-10T13:25:36.902Z,97224.25
2023-05-10T13:28:03.997Z,97226.13
2023-05-10T13:30:31.090Z,97233.44
2023-05-10T13:32:58.244Z,97225.94
2023-05-10T13:35:26.786Z,97244.06
2023-05-10T13:37:53.889Z,97238.97
2023-05-10T13:40:21.009Z,97238.84
2023-05-10T13:42:48.106Z,97239.56
2023-05-10T13:45:15.554Z,97241.03
2023-05-10T13:47:43.014Z,97238.53
2023-05-10T13:50:10.545Z,97242.31
2023-05-10T13:52:38.950Z,97245.34
2023-05-10T13:55:06.450Z,97250.72
2023-05-10T13:57:33.875Z,97239.84
2023-05-10T14:00:01.090Z,97219.25
2023-05-10T14:02:28.291Z,97238.66
2023-05-10T14:04:55.449Z,97248.38
2023-05-10T14:07:22.521Z,97247.59
2023-05-10T14:09:51.021Z,97240.22
2023-05-10T14:12:18.135Z,97241.59
2023-05-10T14:14:45.214Z,97241.44
2023-05-10T14:17:12.616Z,97237.75
2023-05-10T14:19:40.019Z,97242.03
2023-05-10T14:22:07.295Z,97241.84
2023-05-10T14:24:34.401Z,97230.97
2023-05-10T14:27:02.880Z,97236.13
2023-05-10T14:29:29.959Z,97234.66
2023-05-10T14:31:57.126Z,97232.25
2023-05-10T14:34:24.228Z,97236.06
2023-05-10T14:36:51.293Z,97236.38
2023-05-10T14:39:18.391Z,97237.19
2023-05-10T14:41:45.592Z,97240.00
2023-05-10T14:44:14.142Z,97235.69
2023-05-10T14:46:41.239Z,97239.94
2023-05-10T14:49:08.598Z,97240.94
2023-05-10T14:51:35.697Z,97240.84
2023-05-10T14:54:02.855Z,97244.03
2023-05-10T14:56:29.926Z,97241.81
2023-05-10T14:58:57.018Z,97246.34
2023-05-10T15:01:26.167Z,97246.94
2023-05-10T15:03:53.774Z,97243.00
2023-05-10T15:06:24.760Z,97247.56
2023-05-10T15:08:51.896Z,97250.56
2023-05-10T15:11:19.596Z,97233.53
2023-05-10T15:13:46.704Z,97238.13
2023-05-10T15:16:13.914Z,97247.34
2023-05-10T15:18:42.392Z,97226.81
2023-05-10T15:21:09.787Z,97258.19
2023-05-10T15:23:36.924Z,97250.06
2023-05-10T15:26:04.049Z,97253.97
2023-05-10T15:28:32.420Z,97254.75
2023-05-10T15:31:00.976Z,97263.66
2023-05-10T15:33:28.086Z,97260.25
2023-05-10T15:35:56.495Z,97267.69
2023-05-10T15:38:23.654Z,97270.38
2023-05-10T15:40:50.733Z,97273.09
2023-05-10T15:43:17.846Z,97268.50
2023-05-10T15:45:44.958Z,97278.19
2023-05-10T15:48:12.097Z,97282.72
2023-05-10T15:50:39.167Z,97285.28
2023-05-10T15:53:07.636Z,97288.81
2023-05-10T15:55:34.715Z,97273.59
2023-05-10T15:58:01.805Z,97284.19
2023-05-10T16:00:28.996Z,97281.78
2023-05-10T16:02:56.190Z,97287.22
2023-05-10T16:05:23.319Z,97280.19
2023-05-10T16:07:50.413Z,97283.50
2023-05-10T16:10:18.848Z,97274.59
2023-05-10T16:12:46.102Z,97278.19
2023-05-10T16:15:13.221Z,97284.09
2023-05-10T16:17:40.375Z,97284.53
2023-05-10T16:20:08.466Z,97288.13
2023-05-10T16:22:35.771Z,97286.22
2023-05-10T16:25:02.863Z,97291.34
2023-05-10T16:27:31.391Z,97287.81
2023-05-10T16:29:58.615Z,97287.81
2023-05-10T16:32:25.780Z,97294.53
2023-05-10T16:34:52.959Z,97285.03
2023-05-10T16:37:20.132Z,97298.44
2023-05-10T16:39:47.218Z,97297.03
2023-05-10T16:42:14.298Z,97296.03
2023-05-10T16:44:42.851Z,97286.00
2023-05-10T16:47:09.960Z,97294.13
2023-05-10T16:49:37.081Z,97299.53
2023-05-10T16:52:04.265Z,97289.31
2023-05-10T16:54:31.351Z,97296.63
2023-05-10T16:56:58.430Z,97293.94
2023-05-10T16:59:25.501Z,97294.72
2023-05-10T17:01:54.835Z,97291.03
2023-05-10T17:04:21.968Z,97283.53
2023-05-10T17:06:49.105Z,97291.66
2023-05-10T17:09:16.186Z,97295.13
2023-05-10T17:11:43.265Z,97293.22
2023-05-10T17:14:10.376Z,97294.94
2023-05-10T17:16:37.545Z,97287.53
2023-05-10T17:19:06.036Z,97299.47
2023-05-10T17:21:33.197Z,97300.75
2023-05-10T17:24:00.288Z,97302.34
2023-05-10T17:26:27.487Z,97307.25
2023-05-10T17:28:54.634Z,97314.75
2023-05-10T17:31:21.765Z,97315.06
2023-05-10T17:33:48.902Z,97316.69
2023-05-10T17:36:17.393Z,97315.06
2023-05-10T17:38:44.494Z,97321.09
2023-05-10T17:41:11.611Z,97315.69
2023-05-10T17:43:38.710Z,97318.97
2023-05-10T17:46:05.928Z,97319.38
2023-05-10T17:48:33.194Z,97324.19
2023-05-10T17:51:00.288Z,97337.59
2023-05-10T17:53:28.742Z,97328.88
2023-05-10T17:55:55.830Z,97330.50
2023-05-10T17:58:22.931Z,97333.78
2023-05-10T18:00:51.622Z,97329.50
2023-05-10T18:03:19.041Z,97329.19
2023-05-10T18:05:47.470Z,97335.09
2023-05-10T18:08:14.784Z,97327.50
2023-05-10T18:10:43.185Z,97338.00
2023-05-10T18:13:10.318Z,97336.97
2023-05-10T18:15:37.441Z,97336.81
2023-05-10T18:18:05.018Z,97335.06
2023-05-10T18:20:32.171Z,97338.03
2023-05-10T18:22:59.329Z,97330.75
2023-05-10T18:25:26.514Z,97347.63
2023-05-10T18:27:55.210Z,97345.50
2023-05-10T18:30:22.333Z,97331.78
2023-05-10T18:32:49.449Z,97351.31
2023-05-10T18:35:16.558Z,97355.31
2023-05-10T18:37:43.891Z,97351.91
2023-05-10T18:40:11.244Z,97351.31
2023-05-10T18:42:38.417Z,97351.56
2023-05-10T18:45:08.374Z,97358.22
2023-05-10T18:47:35.515Z,97354.56
2023-05-10T18:50:03.642Z,97368.47
2023-05-10T18:52:30.907Z,97366.66
2023-05-10T18:54:58.002Z,97365.00
2023-05-10T18:57:25.117Z,97372.19
2023-05-10T18:59:52.167Z,97371.69
2023-05-10T19:02:20.844Z,97373.31
2023-05-10T19:04:48.007Z,97382.34
2023-05-10T19:07:15.102Z,97384.34
2023-05-10T19:09:42.176Z,97385.25
2023-05-10T19:12:09.332Z,97387.81
2023-05-10T19:14:36.436Z,97382.00
2023-05-10T19:17:03.621Z,97385.13
2023-05-10T19:19:32.443Z,97394.31
2023-05-10T19:21:59.676Z,97387.63
2023-05-10T19:24:26.761Z,97391.75
2023-05-10T19:26:53.955Z,97390.44
2023-05-10T19:29:21.072Z,97396.69
2023-05-10T19:31:48.158Z,97398.06
2023-05-10T19:34:15.488Z,97399.19
2023-05-10T19:36:44.291Z,97394.75
2023-05-10T19:39:11.575Z,97406.28
2023-05-10T19:41:38.781Z,97402.44
2023-05-10T19:44:05.941Z,97402.28
2023-05-10T19:46:33.101Z,97397.91
2023-05-10T19:49:00.248Z,97400.72
2023-05-10T19:51:27.326Z,97394.13
2023-05-10T19:53:55.732Z,97402.53
2023-05-10T19:56:22.815Z,97393.34
2023-05-10T19:58:49.891Z,97401.03
2023-05-10T20:01:17.083Z,97394.94
2023-05-10T20:03:44.298Z,97399.06
2023-05-10T20:06:11.362Z,97400.19
2023-05-10T20:08:38.444Z,97393.28
2023-05-10T20:11:06.892Z,97397.41
2023-05-10T20:13:33.970Z,97409.31
2023-05-10T20:16:01.088Z,97404.41
2023-05-10T20:18:28.222Z,97409.41
2023-05-10T20:20:55.576Z,97407.53
2023-05-10T20:23:22.949Z,97407.09
2023-05-10T20:25:50.481Z,97408.81
2023-05-10T20:28:21.718Z,97413.03
2023-05-10T20:30:52.904Z,97409.91
2023-05-10T20:33:20.568Z,97409.63
2023-05-10T20:35:47.882Z,97406.34
2023-05-10T20:38:15.003Z,97405.22
2023-05-10T20:40:42.077Z,97406.94
2023-05-10T20:43:09.208Z,97406.03
2023-05-10T20:45:37.938Z,97405.94
2023-05-10T20:48:05.706Z,97410.53
2023-05-10T20:50:32.898Z,97399.38
2023-05-10T20:53:00.675Z,97400.16
2023-05-10T20:55:27.878Z,97406.41
2023-05-10T20:57:54.970Z,97406.50
2023-05-10T21:00:22.166Z,97405.19
2023-05-10T21:02:50.646Z,97392.66
2023-05-10T21:05:17.984Z,97408.28
2023-05-10T21:07:45.159Z,97404.38
2023-05-10T21:10:12.468Z,97404.56
2023-05-10T21:12:39.615Z,97401.66
2023-05-10T21:15:08.098Z,97398.66
2023-05-10T21:17:35.277Z,97398.88
2023-05-10T21:20:04.177Z,97404.06
2023-05-10T21:22:31.299Z,97398.66
2023-05-10T21:24:58.579Z,97388.16
2023-05-10T21:27:25.643Z,97394.97
2023-05-10T21:29:52.803Z,97392.25
2023-05-10T21:32:20.245Z,97395.25
2023-05-10T21:34:47.396Z,97391.25
2023-05-10T21:37:16.716Z,97397.88
2023-05-10T21:39:43.878Z,97394.16
2023-05-10T21:42:10.978Z,97383.34
2023-05-10T21:44:38.079Z,97386.06
2023-05-10T21:47:05.371Z,97394.16
2023-05-10T21:49:32.453Z,97389.06
2023-05-10T21:51:59.561Z,97388.75
2023-05-10T21:54:28.180Z,97386.44
2023-05-10T21:56:55.270Z,97389.69
2023-05-10T21:59:22.353Z,97390.97
2023-05-10T22:01:49.452Z,97392.88
2023-05-10T22:04:16.756Z,97389.69
2023-05-10T22:06:43.831Z,97394.75
2023-05-10T22:09:10.914Z,97395.09
2023-05-10T22:11:39.371Z,97392.38
2023-05-10T22:14:06.769Z,97390.75
2023-05-10T22:16:33.918Z,97390.25
2023-05-10T22:19:01.079Z,97386.25
2023-05-10T22:21:28.226Z,97392.66
2023-05-10T22:23:55.695Z,97392.75
2023-05-10T22:26:22.785Z,97396.38
2023-05-10T22:28:51.264Z,97395.53
2023-05-10T22:31:18.349Z,97392.03
2023-05-10T22:33:45.443Z,97390.75
2023-05-10T22:36:12.781Z,97377.44
2023-05-10T22:38:39.855Z,97385.56
2023-05-10T22:41:06.940Z,97380.34
2023-05-10T22:43:34.049Z,97385.94
2023-05-10T22:46:02.534Z,97377.13
2023-05-10T22:48:29.693Z,97388.66
2023-05-10T22:50:56.821Z,97384.34
2023-05-10T22:53:23.919Z,97390.56
2023-05-10T22:55:51.390Z,97383.66
2023-05-10T22:58:18.603Z,97378.31
2023-05-10T23:00:45.713Z,97391.16
2023-05-10T23:03:14.237Z,97386.06
2023-05-10T23:05:41.369Z,97390.34
2023-05-10T23:08:08.477Z,97388.75
2023-05-10T23:10:35.549Z,97385.34
2023-05-10T23:13:02.673Z,97392.94
2023-05-10T23:15:29.825Z,97393.63
2023-05-10T23:17:56.950Z,97394.31
2023-05-10T23:20:25.419Z,97390.84
2023-05-10T23:22:52.752Z,97395.44
2023-05-10T23:25:19.834Z,97397.34
2023-05-10T23:27:46.949Z,97389.53
2023-05-10T23:30:14.336Z,97398.06
2023-05-10T23:32:41.468Z,97395.34
2023-05-10T23:35:09.380Z,97396.38
2023-05-10T23:37:37.995Z,97393.16
2023-05-10T23:40:06.178Z,97387.75
2023-05-10T23:42:33.429Z,97391.53
2023-05-10T23:45:00.617Z,97388.84
2023-05-10T23:47:27.714Z,97387.44
2023-05-10T23:49:54.854Z,97384.22
2023-05-10T23:52:21.920Z,97374.91
2023-05-10T23:54:50.436Z,97382.44
2023-05-10T23:57:17.618Z,97385.72
2023-05-10T23:59:44.935Z,97385.53
